sensor_id;sensor_type;location;lat;lon;timestamp;P1;durP1;ratioP1;P2;durP2;ratioP2
46653;SDS011;38960;51.074;17.004;2024-03-22T00:01:50;13.77;;;9.10;;
46653;SDS011;38960;51.074;17.004;2024-03-22T00:04:17;12.07;;;9.57;;
46653;SDS011;38960;51.074;17.004;2024-03-22T00:06:45;15.30;;;11.27;;
46653;SDS011;38960;51.074;17.004;2024-03-22T00:09:11;13.18;;;10.63;;
46653;SDS011;38960;51.074;17.004;2024-03-22T00:11:38;14.32;;;10.82;;
46653;SDS011;38960;51.074;17.004;2024-03-22T00:14:04;14.98;;;11.27;;
46653;SDS011;38960;51.074;17.004;2024-03-22T00:16:30;18.70;;;11.05;;
46653;SDS011;38960;51.074;17.004;2024-03-22T00:18:57;17.25;;;12.07;;
46653;SDS011;38960;51.074;17.004;2024-03-22T00:21:23;19.20;;;12.35;;
46653;SDS011;38960;51.074;17.004;2024-03-22T00:23:50;16.75;;;11.27;;
46653;SDS011;38960;51.074;17.004;2024-03-22T00:26:15;15.02;;;11.07;;
46653;SDS011;38960;51.074;17.004;2024-03-22T00:28:41;13.07;;;10.15;;
46653;SDS011;38960;51.074;17.004;2024-03-22T00:31:08;12.75;;;10.38;;
46653;SDS011;38960;51.074;17.004;2024-03-22T00:33:34;11.82;;;10.38;;
46653;SDS011;38960;51.074;17.004;2024-03-22T00:36:00;11.50;;;9.60;;
46653;SDS011;38960;51.074;17.004;2024-03-22T00:38:26;11.25;;;9.27;;
46653;SDS011;38960;51.074;17.004;2024-03-22T00:40:51;15.30;;;10.00;;
46653;SDS011;38960;51.074;17.004;2024-03-22T00:43:17;11.77;;;8.68;;
46653;SDS011;38960;51.074;17.004;2024-03-22T00:45:45;13.77;;;9.13;;
46653;SDS011;38960;51.074;17.004;2024-03-22T00:48:11;13.10;;;9.50;;
46653;SDS011;38960;51.074;17.004;2024-03-22T00:50:37;11.90;;;8.02;;
46653;SDS011;38960;51.074;17.004;2024-03-22T00:53:04;11.15;;;8.50;;
46653;SDS011;38960;51.074;17.004;2024-03-22T00:55:31;10.27;;;8.70;;
46653;SDS011;38960;51.074;17.004;2024-03-22T00:57:57;11.35;;;8.18;;
46653;SDS011;38960;51.074;17.004;2024-03-22T01:00:23;13.25;;;9.98;;
46653;SDS011;38960;51.074;17.004;2024-03-22T01:02:49;11.73;;;9.55;;
46653;SDS011;38960;51.074;17.004;2024-03-22T01:05:15;12.75;;;10.18;;
46653;SDS011;38960;51.074;17.004;2024-03-22T01:07:42;14.02;;;9.77;;
46653;SDS011;38960;51.074;17.004;2024-03-22T01:10:08;12.95;;;9.90;;
46653;SDS011;38960;51.074;17.004;2024-03-22T01:12:35;11.95;;;9.27;;
46653;SDS011;38960;51.074;17.004;2024-03-22T01:15:01;12.40;;;9.43;;
46653;SDS011;38960;51.074;17.004;2024-03-22T01:17:26;15.40;;;10.43;;
46653;SDS011;38960;51.074;17.004;2024-03-22T01:19:52;10.77;;;9.27;;
46653;SDS011;38960;51.074;17.004;2024-03-22T01:22:18;13.15;;;9.60;;
46653;SDS011;38960;51.074;17.004;2024-03-22T01:24:44;10.70;;;9.07;;
46653;SDS011;38960;51.074;17.004;2024-03-22T01:27:11;10.75;;;8.80;;
46653;SDS011;38960;51.074;17.004;2024-03-22T01:29:37;10.45;;;8.85;;
46653;SDS011;38960;51.074;17.004;2024-03-22T01:32:03;11.43;;;8.45;;
46653;SDS011;38960;51.074;17.004;2024-03-22T01:34:28;12.75;;;9.20;;
46653;SDS011;38960;51.074;17.004;2024-03-22T01:36:54;12.73;;;8.82;;
46653;SDS011;38960;51.074;17.004;2024-03-22T01:39:20;11.30;;;8.75;;
46653;SDS011;38960;51.074;17.004;2024-03-22T01:41:49;11.05;;;8.35;;
46653;SDS011;38960;51.074;17.004;2024-03-22T01:44:15;10.52;;;7.28;;
46653;SDS011;38960;51.074;17.004;2024-03-22T01:46:41;9.88;;;7.40;;
46653;SDS011;38960;51.074;17.004;2024-03-22T01:49:11;8.85;;;7.47;;
46653;SDS011;38960;51.074;17.004;2024-03-22T01:51:40;11.85;;;7.45;;
46653;SDS011;38960;51.074;17.004;2024-03-22T01:54:06;11.43;;;7.63;;
46653;SDS011;38960;51.074;17.004;2024-03-22T01:56:39;11.93;;;7.93;;
46653;SDS011;38960;51.074;17.004;2024-03-22T01:59:05;10.60;;;7.72;;
46653;SDS011;38960;51.074;17.004;2024-03-22T02:01:32;10.00;;;8.07;;
46653;SDS011;38960;51.074;17.004;2024-03-22T02:03:58;11.25;;;7.90;;
46653;SDS011;38960;51.074;17.004;2024-03-22T02:06:23;9.00;;;7.50;;
46653;SDS011;38960;51.074;17.004;2024-03-22T02:08:49;9.48;;;7.80;;
46653;SDS011;38960;51.074;17.004;2024-03-22T02:11:14;10.35;;;8.40;;
46653;SDS011;38960;51.074;17.004;2024-03-22T02:13:40;10.00;;;7.70;;
46653;SDS011;38960;51.074;17.004;2024-03-22T02:16:08;12.15;;;8.70;;
46653;SDS011;38960;51.074;17.004;2024-03-22T02:18:34;9.60;;;7.75;;
46653;SDS011;38960;51.074;17.004;2024-03-22T02:20:59;9.07;;;7.45;;
46653;SDS011;38960;51.074;17.004;2024-03-22T02:23:38;11.32;;;8.10;;
46653;SDS011;38960;51.074;17.004;2024-03-22T02:26:05;10.32;;;8.18;;
46653;SDS011;38960;51.074;17.004;2024-03-22T02:28:32;13.57;;;8.20;;
46653;SDS011;38960;51.074;17.004;2024-03-22T02:31:00;8.77;;;7.35;;
46653;SDS011;38960;51.074;17.004;2024-03-22T02:33:25;12.45;;;8.25;;
46653;SDS011;38960;51.074;17.004;2024-03-22T02:35:51;10.52;;;7.80;;
46653;SDS011;38960;51.074;17.004;2024-03-22T02:38:17;9.98;;;8.27;;
46653;SDS011;38960;51.074;17.004;2024-03-22T02:40:43;9.38;;;8.20;;
46653;SDS011;38960;51.074;17.004;2024-03-22T02:43:10;11.02;;;8.80;;
46653;SDS011;38960;51.074;17.004;2024-03-22T02:45:35;11.05;;;8.98;;
46653;SDS011;38960;51.074;17.004;2024-03-22T02:48:01;12.20;;;9.15;;
46653;SDS011;38960;51.074;17.004;2024-03-22T02:50:27;22.65;;;9.38;;
46653;SDS011;38960;51.074;17.004;2024-03-22T02:52:52;13.48;;;9.57;;
46653;SDS011;38960;51.074;17.004;2024-03-22T02:55:18;11.57;;;8.98;;
46653;SDS011;38960;51.074;17.004;2024-03-22T02:57:43;11.25;;;9.18;;
46653;SDS011;38960;51.074;17.004;2024-03-22T03:00:09;13.82;;;10.02;;
46653;SDS011;38960;51.074;17.004;2024-03-22T03:02:35;11.38;;;9.32;;
46653;SDS011;38960;51.074;17.004;2024-03-22T03:05:03;13.45;;;10.40;;
46653;SDS011;38960;51.074;17.004;2024-03-22T03:07:31;15.40;;;10.52;;
46653;SDS011;38960;51.074;17.004;2024-03-22T03:09:58;15.02;;;10.63;;
46653;SDS011;38960;51.074;17.004;2024-03-22T03:12:23;13.18;;;11.20;;
46653;SDS011;38960;51.074;17.004;2024-03-22T03:14:49;14.75;;;12.05;;
46653;SDS011;38960;51.074;17.004;2024-03-22T03:17:14;14.75;;;11.60;;
46653;SDS011;38960;51.074;17.004;2024-03-22T03:19:41;15.13;;;12.35;;
46653;SDS011;38960;51.074;17.004;2024-03-22T03:22:08;15.10;;;12.35;;
46653;SDS011;38960;51.074;17.004;2024-03-22T03:24:33;15.73;;;13.25;;
46653;SDS011;38960;51.074;17.004;2024-03-22T03:26:59;17.42;;;13.50;;
46653;SDS011;38960;51.074;17.004;2024-03-22T03:29:24;17.10;;;12.85;;
46653;SDS011;38960;51.074;17.004;2024-03-22T03:31:50;18.45;;;14.40;;
46653;SDS011;38960;51.074;17.004;2024-03-22T03:34:16;17.38;;;13.85;;
46653;SDS011;38960;51.074;17.004;2024-03-22T03:36:42;17.35;;;13.70;;
46653;SDS011;38960;51.074;17.004;2024-03-22T03:39:07;18.85;;;15.52;;
46653;SDS011;38960;51.074;17.004;2024-03-22T03:41:35;16.92;;;14.35;;
46653;SDS011;38960;51.074;17.004;2024-03-22T03:44:02;16.08;;;13.68;;
46653;SDS011;38960;51.074;17.004;2024-03-22T03:46:28;18.75;;;13.10;;
46653;SDS011;38960;51.074;17.004;2024-03-22T03:48:54;19.45;;;13.48;;
46653;SDS011;38960;51.074;17.004;2024-03-22T03:51:21;19.67;;;14.15;;
46653;SDS011;38960;51.074;17.004;2024-03-22T03:53:46;20.02;;;14.48;;
46653;SDS011;38960;51.074;17.004;2024-03-22T03:56:12;19.08;;;13.38;;
46653;SDS011;38960;51.074;17.004;2024-03-22T03:58:38;17.65;;;13.27;;
46653;SDS011;38960;51.074;17.004;2024-03-22T04:01:05;16.90;;;13.57;;
46653;SDS011;38960;51.074;17.004;2024-03-22T04:03:31;17.38;;;13.10;;
46653;SDS011;38960;51.074;17.004;2024-03-22T04:05:57;18.33;;;14.85;;
46653;SDS011;38960;51.074;17.004;2024-03-22T04:08:24;18.13;;;13.13;;
46653;SDS011;38960;51.074;17.004;2024-03-22T04:10:54;15.55;;;12.93;;
46653;SDS011;38960;51.074;17.004;2024-03-22T04:13:24;17.25;;;13.82;;
46653;SDS011;38960;51.074;17.004;2024-03-22T04:15:50;16.50;;;13.70;;
46653;SDS011;38960;51.074;17.004;2024-03-22T04:18:16;19.00;;;13.02;;
46653;SDS011;38960;51.074;17.004;2024-03-22T04:20:41;16.77;;;12.82;;
46653;SDS011;38960;51.074;17.004;2024-03-22T04:23:09;16.73;;;13.15;;
46653;SDS011;38960;51.074;17.004;2024-03-22T04:25:35;15.82;;;13.25;;
46653;SDS011;38960;51.074;17.004;2024-03-22T04:28:02;14.88;;;12.35;;
46653;SDS011;38960;51.074;17.004;2024-03-22T04:30:29;18.25;;;12.85;;
46653;SDS011;38960;51.074;17.004;2024-03-22T04:32:55;14.52;;;11.20;;
46653;SDS011;38960;51.074;17.004;2024-03-22T04:35:20;15.07;;;12.50;;
46653;SDS011;38960;51.074;17.004;2024-03-22T04:37:46;16.13;;;12.18;;
46653;SDS011;38960;51.074;17.004;2024-03-22T04:40:13;15.55;;;12.82;;
46653;SDS011;38960;51.074;17.004;2024-03-22T04:42:39;19.92;;;13.55;;
46653;SDS011;38960;51.074;17.004;2024-03-22T04:45:04;14.93;;;12.30;;
46653;SDS011;38960;51.074;17.004;2024-03-22T04:47:30;17.92;;;12.55;;
46653;SDS011;38960;51.074;17.004;2024-03-22T04:49:56;15.13;;;12.50;;
46653;SDS011;38960;51.074;17.004;2024-03-22T04:52:21;18.05;;;12.25;;
46653;SDS011;38960;51.074;17.004;2024-03-22T04:54:48;18.83;;;13.10;;
46653;SDS011;38960;51.074;17.004;2024-03-22T04:57:14;15.43;;;12.90;;
46653;SDS011;38960;51.074;17.004;2024-03-22T04:59:40;17.40;;;13.50;;
46653;SDS011;38960;51.074;17.004;2024-03-22T05:02:05;15.02;;;12.55;;
46653;SDS011;38960;51.074;17.004;2024-03-22T05:04:31;14.82;;;13.18;;
46653;SDS011;38960;51.074;17.004;2024-03-22T05:06:57;15.90;;;12.80;;
46653;SDS011;38960;51.074;17.004;2024-03-22T05:09:23;13.60;;;11.55;;
46653;SDS011;38960;51.074;17.004;2024-03-22T05:11:48;14.63;;;11.77;;
46653;SDS011;38960;51.074;17.004;2024-03-22T05:14:16;13.68;;;10.98;;
46653;SDS011;38960;51.074;17.004;2024-03-22T05:16:43;13.73;;;11.60;;
46653;SDS011;38960;51.074;17.004;2024-03-22T05:19:08;16.05;;;11.63;;
46653;SDS011;38960;51.074;17.004;2024-03-22T05:21:35;17.65;;;12.63;;
46653;SDS011;38960;51.074;17.004;2024-03-22T05:24:02;15.10;;;12.10;;
46653;SDS011;38960;51.074;17.004;2024-03-22T05:26:29;14.00;;;11.75;;
46653;SDS011;38960;51.074;17.004;2024-03-22T05:28:57;14.00;;;12.02;;
46653;SDS011;38960;51.074;17.004;2024-03-22T05:31:23;14.68;;;12.07;;
46653;SDS011;38960;51.074;17.004;2024-03-22T05:33:55;13.30;;;11.60;;
46653;SDS011;38960;51.074;17.004;2024-03-22T05:36:21;13.32;;;11.30;;
46653;SDS011;38960;51.074;17.004;2024-03-22T05:38:46;16.40;;;12.35;;
46653;SDS011;38960;51.074;17.004;2024-03-22T05:41:12;15.38;;;11.73;;
46653;SDS011;38960;51.074;17.004;2024-03-22T05:43:38;16.27;;;12.38;;
46653;SDS011;38960;51.074;17.004;2024-03-22T05:46:03;15.45;;;11.10;;
46653;SDS011;38960;51.074;17.004;2024-03-22T05:48:29;16.95;;;12.70;;
46653;SDS011;38960;51.074;17.004;2024-03-22T05:50:55;15.23;;;11.95;;
46653;SDS011;38960;51.074;17.004;2024-03-22T05:53:20;15.05;;;11.77;;
46653;SDS011;38960;51.074;17.004;2024-03-22T05:55:46;18.45;;;11.25;;
46653;SDS011;38960;51.074;17.004;2024-03-22T05:58:11;19.75;;;11.60;;
46653;SDS011;38960;51.074;17.004;2024-03-22T06:00:37;15.05;;;11.48;;
46653;SDS011;38960;51.074;17.004;2024-03-22T06:03:03;16.23;;;10.98;;
46653;SDS011;38960;51.074;17.004;2024-03-22T06:05:29;14.50;;;12.02;;
46653;SDS011;38960;51.074;17.004;2024-03-22T06:07:54;15.85;;;12.15;;
46653;SDS011;38960;51.074;17.004;2024-03-22T06:10:20;17.63;;;12.45;;
46653;SDS011;38960;51.074;17.004;2024-03-22T06:12:45;18.63;;;12.45;;
46653;SDS011;38960;51.074;17.004;2024-03-22T06:15:12;15.15;;;11.75;;
46653;SDS011;38960;51.074;17.004;2024-03-22T06:17:38;15.23;;;12.40;;
46653;SDS011;38960;51.074;17.004;2024-03-22T06:20:03;16.67;;;12.75;;
46653;SDS011;38960;51.074;17.004;2024-03-22T06:22:30;16.58;;;11.80;;
46653;SDS011;38960;51.074;17.004;2024-03-22T06:24:56;15.70;;;10.90;;
46653;SDS011;38960;51.074;17.004;2024-03-22T06:27:21;15.60;;;11.52;;
46653;SDS011;38960;51.074;17.004;2024-03-22T06:29:47;15.40;;;12.38;;
46653;SDS011;38960;51.074;17.004;2024-03-22T06:32:12;15.80;;;12.48;;
46653;SDS011;38960;51.074;17.004;2024-03-22T06:34:38;16.38;;;11.63;;
46653;SDS011;38960;51.074;17.004;2024-03-22T06:37:03;16.90;;;13.30;;
46653;SDS011;38960;51.074;17.004;2024-03-22T06:39:29;16.48;;;11.93;;
46653;SDS011;38960;51.074;17.004;2024-03-22T06:41:55;20.17;;;12.40;;
46653;SDS011;38960;51.074;17.004;2024-03-22T06:44:21;15.32;;;11.93;;
46653;SDS011;38960;51.074;17.004;2024-03-22T06:46:48;14.25;;;11.68;;
46653;SDS011;38960;51.074;17.004;2024-03-22T06:49:14;18.00;;;12.00;;
46653;SDS011;38960;51.074;17.004;2024-03-22T06:51:39;17.17;;;12.75;;
46653;SDS011;38960;51.074;17.004;2024-03-22T06:54:05;17.20;;;13.20;;
46653;SDS011;38960;51.074;17.004;2024-03-22T06:56:30;16.30;;;13.13;;
46653;SDS011;38960;51.074;17.004;2024-03-22T06:58:56;19.30;;;13.63;;
46653;SDS011;38960;51.074;17.004;2024-03-22T07:01:21;17.00;;;13.27;;
46653;SDS011;38960;51.074;17.004;2024-03-22T07:03:47;19.48;;;13.45;;
46653;SDS011;38960;51.074;17.004;2024-03-22T07:06:13;15.85;;;12.57;;
46653;SDS011;38960;51.074;17.004;2024-03-22T07:08:40;19.77;;;14.75;;
46653;SDS011;38960;51.074;17.004;2024-03-22T07:11:06;17.70;;;12.85;;
46653;SDS011;38960;51.074;17.004;2024-03-22T07:13:32;17.17;;;13.02;;
46653;SDS011;38960;51.074;17.004;2024-03-22T07:15:58;17.25;;;12.98;;
46653;SDS011;38960;51.074;17.004;2024-03-22T07:18:24;17.63;;;12.80;;
46653;SDS011;38960;51.074;17.004;2024-03-22T07:23:40;16.75;;;12.55;;
46653;SDS011;38960;51.074;17.004;2024-03-22T07:26:05;25.55;;;14.68;;
46653;SDS011;38960;51.074;17.004;2024-03-22T07:28:51;19.60;;;13.57;;
46653;SDS011;38960;51.074;17.004;2024-03-22T07:31:16;19.80;;;13.95;;
46653;SDS011;38960;51.074;17.004;2024-03-22T07:33:42;21.10;;;14.15;;
46653;SDS011;38960;51.074;17.004;2024-03-22T07:36:09;17.13;;;13.13;;
46653;SDS011;38960;51.074;17.004;2024-03-22T07:38:34;21.27;;;15.13;;
46653;SDS011;38960;51.074;17.004;2024-03-22T07:41:00;17.67;;;13.55;;
46653;SDS011;38960;51.074;17.004;2024-03-22T07:43:26;28.95;;;16.58;;
46653;SDS011;38960;51.074;17.004;2024-03-22T07:45:51;19.55;;;13.88;;
46653;SDS011;38960;51.074;17.004;2024-03-22T07:48:17;26.00;;;14.45;;
46653;SDS011;38960;51.074;17.004;2024-03-22T07:50:42;19.23;;;13.35;;
46653;SDS011;38960;51.074;17.004;2024-03-22T07:53:08;17.63;;;13.60;;
46653;SDS011;38960;51.074;17.004;2024-03-22T07:55:34;17.85;;;12.60;;
46653;SDS011;38960;51.074;17.004;2024-03-22T07:58:00;16.40;;;12.88;;
46653;SDS011;38960;51.074;17.004;2024-03-22T08:00:25;19.33;;;13.32;;
46653;SDS011;38960;51.074;17.004;2024-03-22T08:02:51;20.95;;;13.93;;
46653;SDS011;38960;51.074;17.004;2024-03-22T08:05:17;17.00;;;12.80;;
46653;SDS011;38960;51.074;17.004;2024-03-22T08:07:42;25.70;;;15.23;;
46653;SDS011;38960;51.074;17.004;2024-03-22T08:10:11;17.92;;;13.77;;
46653;SDS011;38960;51.074;17.004;2024-03-22T08:12:36;15.48;;;12.32;;
46653;SDS011;38960;51.074;17.004;2024-03-22T08:15:02;17.83;;;13.20;;
46653;SDS011;38960;51.074;17.004;2024-03-22T08:17:28;17.83;;;14.05;;
46653;SDS011;38960;51.074;17.004;2024-03-22T08:19:53;18.10;;;12.38;;
46653;SDS011;38960;51.074;17.004;2024-03-22T08:22:19;14.68;;;9.57;;
46653;SDS011;38960;51.074;17.004;2024-03-22T08:24:44;18.15;;;10.15;;
46653;SDS011;38960;51.074;17.004;2024-03-22T08:27:10;16.05;;;10.65;;
46653;SDS011;38960;51.074;17.004;2024-03-22T08:29:35;15.02;;;10.82;;
46653;SDS011;38960;51.074;17.004;2024-03-22T08:32:02;15.73;;;11.23;;
46653;SDS011;38960;51.074;17.004;2024-03-22T08:34:30;17.83;;;10.70;;
46653;SDS011;38960;51.074;17.004;2024-03-22T08:36:57;18.17;;;11.77;;
46653;SDS011;38960;51.074;17.004;2024-03-22T08:39:23;17.05;;;12.60;;
46653;SDS011;38960;51.074;17.004;2024-03-22T08:41:49;18.75;;;11.82;;
46653;SDS011;38960;51.074;17.004;2024-03-22T08:44:15;16.95;;;11.40;;
46653;SDS011;38960;51.074;17.004;2024-03-22T08:46:40;16.90;;;10.80;;
46653;SDS011;38960;51.074;17.004;2024-03-22T08:49:06;13.20;;;9.85;;
46653;SDS011;38960;51.074;17.004;2024-03-22T08:51:31;12.88;;;10.27;;
46653;SDS011;38960;51.074;17.004;2024-03-22T08:53:57;14.77;;;10.50;;
46653;SDS011;38960;51.074;17.004;2024-03-22T08:56:22;14.32;;;12.65;;
46653;SDS011;38960;51.074;17.004;2024-03-22T08:58:48;15.25;;;13.65;;
46653;SDS011;38960;51.074;17.004;2024-03-22T09:01:14;13.23;;;11.93;;
46653;SDS011;38960;51.074;17.004;2024-03-22T09:03:40;14.23;;;12.82;;
46653;SDS011;38960;51.074;17.004;2024-03-22T09:06:05;13.80;;;12.40;;
46653;SDS011;38960;51.074;17.004;2024-03-22T09:08:31;14.32;;;12.10;;
46653;SDS011;38960;51.074;17.004;2024-03-22T09:10:58;13.30;;;11.98;;
46653;SDS011;38960;51.074;17.004;2024-03-22T09:13:24;17.55;;;13.48;;
46653;SDS011;38960;51.074;17.004;2024-03-22T09:15:55;12.95;;;11.57;;
46653;SDS011;38960;51.074;17.004;2024-03-22T09:18:22;15.57;;;11.60;;
46653;SDS011;38960;51.074;17.004;2024-03-22T09:20:48;15.20;;;11.95;;
46653;SDS011;38960;51.074;17.004;2024-03-22T09:23:13;16.42;;;11.52;;
46653;SDS011;38960;51.074;17.004;2024-03-22T09:25:39;13.30;;;10.63;;
46653;SDS011;38960;51.074;17.004;2024-03-22T09:28:04;14.63;;;10.50;;
46653;SDS011;38960;51.074;17.004;2024-03-22T09:30:30;12.88;;;10.57;;
46653;SDS011;38960;51.074;17.004;2024-03-22T09:32:55;14.10;;;10.73;;
46653;SDS011;38960;51.074;17.004;2024-03-22T09:35:21;12.65;;;8.88;;
46653;SDS011;38960;51.074;17.004;2024-03-22T09:37:46;12.52;;;10.07;;
46653;SDS011;38960;51.074;17.004;2024-03-22T09:40:12;10.73;;;8.90;;
46653;SDS011;38960;51.074;17.004;2024-03-22T09:42:38;12.95;;;9.05;;
46653;SDS011;38960;51.074;17.004;2024-03-22T09:45:09;12.90;;;9.18;;
46653;SDS011;38960;51.074;17.004;2024-03-22T09:47:36;14.23;;;9.32;;
46653;SDS011;38960;51.074;17.004;2024-03-22T09:50:02;11.27;;;8.00;;
46653;SDS011;38960;51.074;17.004;2024-03-22T09:52:33;13.05;;;8.02;;
46653;SDS011;38960;51.074;17.004;2024-03-22T09:54:58;15.50;;;8.77;;
46653;SDS011;38960;51.074;17.004;2024-03-22T09:57:24;11.68;;;8.57;;
46653;SDS011;38960;51.074;17.004;2024-03-22T09:59:51;14.10;;;9.40;;
46653;SDS011;38960;51.074;17.004;2024-03-22T10:02:17;11.60;;;8.65;;
46653;SDS011;38960;51.074;17.004;2024-03-22T10:04:43;13.40;;;9.50;;
46653;SDS011;38960;51.074;17.004;2024-03-22T10:07:08;15.32;;;9.25;;
46653;SDS011;38960;51.074;17.004;2024-03-22T10:09:38;13.48;;;8.65;;
46653;SDS011;38960;51.074;17.004;2024-03-22T10:12:04;13.05;;;8.80;;
46653;SDS011;38960;51.074;17.004;2024-03-22T10:14:30;14.57;;;9.20;;
46653;SDS011;38960;51.074;17.004;2024-03-22T10:16:56;16.42;;;9.25;;
46653;SDS011;38960;51.074;17.004;2024-03-22T10:19:22;10.55;;;8.65;;
46653;SDS011;38960;51.074;17.004;2024-03-22T10:21:58;13.15;;;8.52;;
46653;SDS011;38960;51.074;17.004;2024-03-22T10:24:28;13.05;;;8.93;;
46653;SDS011;38960;51.074;17.004;2024-03-22T10:26:54;12.32;;;9.40;;
46653;SDS011;38960;51.074;17.004;2024-03-22T10:29:20;13.32;;;8.38;;
46653;SDS011;38960;51.074;17.004;2024-03-22T10:31:47;13.45;;;10.00;;
46653;SDS011;38960;51.074;17.004;2024-03-22T10:34:16;16.00;;;10.13;;
46653;SDS011;38960;51.074;17.004;2024-03-22T10:36:44;12.95;;;9.68;;
46653;SDS011;38960;51.074;17.004;2024-03-22T10:39:12;12.85;;;8.82;;
46653;SDS011;38960;51.074;17.004;2024-03-22T10:41:38;13.88;;;8.93;;
46653;SDS011;38960;51.074;17.004;2024-03-22T10:44:04;10.32;;;7.80;;
46653;SDS011;38960;51.074;17.004;2024-03-22T10:46:30;11.73;;;8.90;;
46653;SDS011;38960;51.074;17.004;2024-03-22T10:48:56;11.25;;;8.20;;
46653;SDS011;38960;51.074;17.004;2024-03-22T10:51:23;14.00;;;9.77;;
46653;SDS011;38960;51.074;17.004;2024-03-22T10:53:51;10.95;;;7.90;;
46653;SDS011;38960;51.074;17.004;2024-03-22T10:56:21;14.35;;;9.90;;
46653;SDS011;38960;51.074;17.004;2024-03-22T10:58:48;13.23;;;9.13;;
46653;SDS011;38960;51.074;17.004;2024-03-22T11:01:25;12.38;;;8.57;;
46653;SDS011;38960;51.074;17.004;2024-03-22T11:03:51;12.98;;;8.32;;
46653;SDS011;38960;51.074;17.004;2024-03-22T11:06:20;13.93;;;8.82;;
46653;SDS011;38960;51.074;17.004;2024-03-22T11:08:50;11.57;;;8.00;;
46653;SDS011;38960;51.074;17.004;2024-03-22T11:11:19;12.32;;;8.77;;
46653;SDS011;38960;51.074;17.004;2024-03-22T11:13:48;14.95;;;9.27;;
46653;SDS011;38960;51.074;17.004;2024-03-22T11:16:14;13.02;;;8.63;;
46653;SDS011;38960;51.074;17.004;2024-03-22T11:18:40;13.10;;;8.35;;
46653;SDS011;38960;51.074;17.004;2024-03-22T11:21:06;16.02;;;9.35;;
46653;SDS011;38960;51.074;17.004;2024-03-22T11:23:34;17.52;;;8.75;;
46653;SDS011;38960;51.074;17.004;2024-03-22T11:26:03;16.77;;;9.15;;
46653;SDS011;38960;51.074;17.004;2024-03-22T11:28:29;15.50;;;9.95;;
46653;SDS011;38960;51.074;17.004;2024-03-22T11:30:55;11.20;;;8.40;;
46653;SDS011;38960;51.074;17.004;2024-03-22T11:33:21;12.45;;;8.85;;
46653;SDS011;38960;51.074;17.004;2024-03-22T11:36:05;16.52;;;9.35;;
46653;SDS011;38960;51.074;17.004;2024-03-22T11:38:31;12.23;;;7.47;;
46653;SDS011;38960;51.074;17.004;2024-03-22T11:40:58;10.32;;;7.05;;
46653;SDS011;38960;51.074;17.004;2024-03-22T11:43:25;9.98;;;7.03;;
46653;SDS011;38960;51.074;17.004;2024-03-22T11:45:53;23.40;;;9.07;;
46653;SDS011;38960;51.074;17.004;2024-03-22T11:48:19;19.48;;;9.45;;
46653;SDS011;38960;51.074;17.004;2024-03-22T11:50:45;75.65;;;17.02;;
46653;SDS011;38960;51.074;17.004;2024-03-22T11:53:11;12.10;;;8.27;;
46653;SDS011;38960;51.074;17.004;2024-03-22T11:55:36;14.25;;;7.88;;
46653;SDS011;38960;51.074;17.004;2024-03-22T11:58:02;12.35;;;7.95;;
46653;SDS011;38960;51.074;17.004;2024-03-22T12:00:27;14.13;;;7.90;;
46653;SDS011;38960;51.074;17.004;2024-03-22T12:02:53;12.32;;;8.50;;
46653;SDS011;38960;51.074;17.004;2024-03-22T12:05:20;12.48;;;7.68;;
46653;SDS011;38960;51.074;17.004;2024-03-22T12:07:46;10.55;;;7.28;;
46653;SDS011;38960;51.074;17.004;2024-03-22T12:10:11;12.10;;;7.22;;
46653;SDS011;38960;51.074;17.004;2024-03-22T12:12:39;10.95;;;7.72;;
46653;SDS011;38960;51.074;17.004;2024-03-22T12:15:04;13.98;;;8.40;;
46653;SDS011;38960;51.074;17.004;2024-03-22T12:17:31;11.52;;;8.40;;
46653;SDS011;38960;51.074;17.004;2024-03-22T12:19:56;14.40;;;9.18;;
46653;SDS011;38960;51.074;17.004;2024-03-22T12:22:22;16.20;;;9.05;;
46653;SDS011;38960;51.074;17.004;2024-03-22T12:24:47;16.58;;;8.00;;
46653;SDS011;38960;51.074;17.004;2024-03-22T12:27:13;13.27;;;8.55;;
46653;SDS011;38960;51.074;17.004;2024-03-22T12:29:39;11.80;;;7.97;;
46653;SDS011;38960;51.074;17.004;2024-03-22T12:32:04;14.43;;;8.07;;
46653;SDS011;38960;51.074;17.004;2024-03-22T12:34:30;14.57;;;8.45;;
46653;SDS011;38960;51.074;17.004;2024-03-22T12:36:57;14.63;;;8.20;;
46653;SDS011;38960;51.074;17.004;2024-03-22T12:39:23;11.77;;;7.93;;
46653;SDS011;38960;51.074;17.004;2024-03-22T12:41:49;9.43;;;6.68;;
46653;SDS011;38960;51.074;17.004;2024-03-22T12:44:15;10.68;;;6.70;;
46653;SDS011;38960;51.074;17.004;2024-03-22T12:46:40;11.30;;;6.78;;
46653;SDS011;38960;51.074;17.004;2024-03-22T12:49:10;9.95;;;6.15;;
46653;SDS011;38960;51.074;17.004;2024-03-22T12:51:36;16.83;;;6.75;;
46653;SDS011;38960;51.074;17.004;2024-03-22T12:54:03;10.82;;;5.90;;
46653;SDS011;38960;51.074;17.004;2024-03-22T12:56:30;8.70;;;5.78;;
46653;SDS011;38960;51.074;17.004;2024-03-22T12:58:55;11.48;;;6.03;;
46653;SDS011;38960;51.074;17.004;2024-03-22T13:01:21;9.02;;;5.85;;
46653;SDS011;38960;51.074;17.004;2024-03-22T13:03:47;10.60;;;5.47;;
46653;SDS011;38960;51.074;17.004;2024-03-22T13:06:12;85.82;;;18.02;;
46653;SDS011;38960;51.074;17.004;2024-03-22T13:08:38;149.50;;;18.42;;
46653;SDS011;38960;51.074;17.004;2024-03-22T13:11:04;60.15;;;9.63;;
46653;SDS011;38960;51.074;17.004;2024-03-22T13:13:30;13.57;;;5.00;;
46653;SDS011;38960;51.074;17.004;2024-03-22T13:15:58;11.23;;;5.45;;
46653;SDS011;38960;51.074;17.004;2024-03-22T13:18:24;10.98;;;4.65;;
46653;SDS011;38960;51.074;17.004;2024-03-22T13:20:49;9.90;;;4.82;;
46653;SDS011;38960;51.074;17.004;2024-03-22T13:23:15;10.15;;;5.10;;
46653;SDS011;38960;51.074;17.004;2024-03-22T13:25:41;7.00;;;4.85;;
46653;SDS011;38960;51.074;17.004;2024-03-22T13:28:06;9.68;;;4.57;;
46653;SDS011;38960;51.074;17.004;2024-03-22T13:30:32;7.90;;;5.07;;
46653;SDS011;38960;51.074;17.004;2024-03-22T13:32:58;7.20;;;4.40;;
46653;SDS011;38960;51.074;17.004;2024-03-22T13:35:24;10.07;;;5.03;;
46653;SDS011;38960;51.074;17.004;2024-03-22T13:37:50;12.10;;;5.38;;
46653;SDS011;38960;51.074;17.004;2024-03-22T13:40:16;12.27;;;5.70;;
46653;SDS011;38960;51.074;17.004;2024-03-22T13:42:41;8.90;;;4.68;;
46653;SDS011;38960;51.074;17.004;2024-03-22T13:45:07;13.55;;;4.70;;
46653;SDS011;38960;51.074;17.004;2024-03-22T13:47:33;5.70;;;4.43;;
46653;SDS011;38960;51.074;17.004;2024-03-22T13:49:58;15.35;;;5.88;;
46653;SDS011;38960;51.074;17.004;2024-03-22T13:52:24;7.75;;;4.53;;
46653;SDS011;38960;51.074;17.004;2024-03-22T13:54:51;13.13;;;5.53;;
46653;SDS011;38960;51.074;17.004;2024-03-22T13:57:16;10.10;;;5.18;;
46653;SDS011;38960;51.074;17.004;2024-03-22T13:59:42;11.65;;;6.88;;
46653;SDS011;38960;51.074;17.004;2024-03-22T14:02:07;12.98;;;5.32;;
46653;SDS011;38960;51.074;17.004;2024-03-22T14:04:34;6.70;;;5.18;;
46653;SDS011;38960;51.074;17.004;2024-03-22T14:06:59;9.38;;;4.55;;
46653;SDS011;38960;51.074;17.004;2024-03-22T14:09:30;7.70;;;4.57;;
46653;SDS011;38960;51.074;17.004;2024-03-22T14:11:59;7.85;;;4.38;;
46653;SDS011;38960;51.074;17.004;2024-03-22T14:14:25;8.95;;;4.55;;